Flight Track Log - Related Links

Times and Time Zones

All times are in EDT time to prevent confusion due to time zone crossing. See the PDT4314 flight status page for this flight to view local times or setup timezone preferences in your user account.

Time Position Orientation Groundspeed Altitude Reporting Facility
EDT Latitude Longitude Course Direction KTS MPH feet Rate Location/Type
Fri 04:59:04 PM 39.9000 -75.2500 311° West 113 130 700  Level Philadelphia TRACON
Fri 05:00:11 PM 39.9000 -75.2833 270° West 139 160 2,200 1,417 Climbing Philadelphia TRACON
Fri 05:01:11 PM 39.9167 -75.3333 294° West 143 165 3,700 1,700 Climbing Philadelphia TRACON
Fri 05:02:00 PM 40.1359 -75.3216 311° West  Level Estimated
Fri 05:02:11 PM 39.9333 -75.3833 294° West 137 158 5,600  Level Philadelphia TRACON
Fri 05:03:00 PM 40.1719 -75.3966 302° West  Level FlightAware Approximate
Fri 05:03:11 PM 39.9500 -75.4333 294° West 130 150 6,800  Level Philadelphia TRACON
Fri 05:04:00 PM 40.2382 -75.4150 311° West  Level Estimated
Fri 05:04:11 PM 39.9667 -75.4667 303° West 154 177 8,200  Level Philadelphia TRACON
Fri 05:04:42 PM 39.9864 -75.4714 350° North 164 189 8,800 593 Climbing New York Center
Fri 05:05:42 PM 40.0294 -75.4933 339° North 179 206 9,100 700 Climbing New York Center
Fri 05:06:42 PM 40.0889 -75.5164 343° North 197 227 10,200 1,000 Climbing New York Center
Fri 05:07:42 PM 40.1383 -75.5333 345° North 204 235 11,100 908 Climbing New York Center
Fri 05:08:41 PM 40.1936 -75.5561 343° North 199 229 12,000 700 Climbing New York Center
Fri 05:09:42 PM 40.2467 -75.5842 338° Northwest 199 229 12,500 744 Climbing New York Center
Fri 05:10:42 PM 40.2889 -75.6225 325° Northwest 193 222 13,500 750 Climbing New York Center
Fri 05:11:42 PM 40.3356 -75.6531 333° Northwest 183 211 14,000 252 Climbing New York Center
Fri 05:12:41 PM 40.3778 -75.6886 327° Northwest 189 217 14,000  Level New York Center
Fri 05:13:42 PM 40.4261 -75.7331 325° Northwest 199 229 14,000  Level New York Center
Fri 05:14:42 PM 40.4803 -75.7833 325° Northwest 210 242 14,000  Level New York Center
Fri 05:15:42 PM 40.5325 -75.8281 327° Northwest 222 255 14,000  Level New York Center
Fri 05:16:42 PM 40.5847 -75.8731 327° Northwest 222 255 14,000  Level New York Center
Fri 05:17:42 PM 40.6353 -75.9069 333° Northwest 227 261 14,000  Level New York Center
Fri 05:18:42 PM 40.6872 -75.9600 322° Northwest 227 261 14,000  Level New York Center
Fri 05:19:42 PM 40.7372 -76.0075 324° Northwest 227 261 14,000 -100 Level New York Center
Fri 05:20:42 PM 40.7917 -76.0503 329° Northwest 227 261 13,800 -500 Descending New York Center
Fri 05:21:42 PM 40.8675 -76.0781 345° North 237 273 13,000 -400 Descending New York Center
Fri 05:22:42 PM 40.9369 -76.1053 344° North 255 293 13,000  Level New York Center
Fri 05:23:42 PM 40.9942 -76.1292 343° North 249 287 13,000  Level New York Center
Fri 05:24:42 PM 41.0664 -76.1486 349° North 238 274 13,000  Level New York Center
Fri 05:25:42 PM 41.1344 -76.1650 350° North 238 274 13,000  Level New York Center
Fri 05:26:42 PM 41.1978 -76.1894 344° North 238 274 13,000  Level New York Center
Fri 05:27:42 PM 41.2553 -76.2050 349° North 238 274 13,000  Level New York Center
Fri 05:28:41 PM 41.3289 -76.1944 North 250 288 13,000  Level New York Center
Fri 05:29:42 PM 41.4058 -76.1950 360° North 255 293 13,000  Level New York Center
Fri 05:30:42 PM 41.4767 -76.1925 North 255 293 13,000  Level New York Center
Fri 05:31:42 PM 41.5481 -76.1844 North 255 293 13,000 -150 Level New York Center
Fri 05:32:42 PM 41.6108 -76.1756 North 255 293 12,700 -750 Descending New York Center
Fri 05:33:42 PM 41.6878 -76.1761 360° North 262 302 11,500 -1,350 Descending New York Center
Fri 05:34:42 PM 41.7733 -76.1719 North 274 315 10,000 -1,400 Descending New York Center
Fri 05:35:42 PM 41.8422 -76.1692 North 263 303 8,700 -1,250 Descending New York Center
Fri 05:36:42 PM 41.9111 -76.1692 360° North 253 291 7,500 -1,250 Descending New York Center
Fri 05:37:42 PM 41.9569 -76.1172 40° Northeast 228 262 6,200 -1,350 Descending New York Center
Fri 05:38:42 PM 41.9883 -76.0222 66° East 228 262 4,800 -1,100 Descending New York Center
Fri 05:39:42 PM 42.0169 -75.9378 65° Northeast 234 269 4,000 -400 Descending New York Center
Fri 05:40:42 PM 42.0608 -75.8911 38° Northeast 211 243 4,000 -100 Level New York Center
Fri 05:41:42 PM 42.1106 -75.8950 357° North 168 193 3,800 -550 Descending New York Center
Fri 05:42:42 PM 42.1444 -75.9283 324° Northwest 152 175 2,900 -750 Descending New York Center
Fri 05:43:42 PM 42.1725 -75.9528 327° Northwest 130 150 2,300 -400 Descending New York Center
Fri 05:44:42 PM 42.2011 -75.9692 337° Northwest 123 142 2,100 -200 Descending New York Center

Login

Don't have an account? Register now (free) for customized features, flight alerts, and more!